Time;durP1;ratioP1;P1;durP2;ratioP2;P2;SDS_P1;SDS_P2;PMS_P1;PMS_P2;Temp;Humidity;BMP_temperature;BMP_pressure;BME280_temperature;BME280_humidity;BME280_pressure;Samples;Min_cycle;Max_cycle;Signal;HPM_P1;HPM_P2
2023/11/12 00:04:04;;;;;;;105.37;51.83;;;7.40;99.90;;;;;;5590269;23;20609;-84
2023/11/12 00:29:23;;;;;;;103.33;47.47;;;7.20;99.90;;;;;;4734738;29;20287;-84
2023/11/12 00:59:19;;;;;;;94.00;44.30;;;7.20;99.90;;;;;;4727991;29;20525;-85
2023/11/12 01:19:53;;;;;;;97.73;45.73;;;7.00;99.90;;;;;;4693378;29;20524;-85
2023/11/12 02:25:32;;;;;;;93.37;41.83;;;7.00;99.90;;;;;;4692919;29;20640;-85
2023/11/12 02:46:28;;;;;;;85.60;37.00;;;6.80;99.90;;;;;;5249437;23;20312;-85
2023/11/12 03:11:36;;;;;;;77.20;36.33;;;6.80;99.90;;;;;;4735613;29;20304;-83
2023/11/12 03:31:56;;;;;;;65.90;32.60;;;6.60;99.90;;;;;;4748599;29;20207;-83
2023/11/12 04:02:22;;;;;;;60.97;29.13;;;6.50;99.90;;;;;;4850069;28;20584;-82
2023/11/12 04:27:46;;;;;;;58.77;27.33;;;6.40;99.90;;;;;;4905967;28;20242;-87
2023/11/12 04:47:54;;;;;;;60.73;26.50;;;6.30;99.90;;;;;;4821323;28;20276;-85
2023/11/12 05:18:17;;;;;;;52.07;24.97;;;6.30;99.90;;;;;;4681301;29;20225;-86
2023/11/12 05:43:25;;;;;;;53.43;24.07;;;6.30;99.90;;;;;;4649249;29;20400;-86
2023/11/12 06:04:02;;;;;;;53.20;22.20;;;6.40;99.90;;;;;;4650389;30;20212;-84
2023/11/12 06:29:29;;;;;;;48.10;23.47;;;6.50;99.90;;;;;;4664057;30;20216;-85
2023/11/12 06:59:15;;;;;;;49.40;22.37;;;6.70;99.90;;;;;;4648006;29;20668;-86
2023/11/12 07:20:11;;;;;;;41.20;21.87;;;6.90;99.90;;;;;;4797688;29;20226;-83
2023/11/12 07:45:32;;;;;;;35.47;19.47;;;6.90;99.90;;;;;;4758768;29;20247;-85
2023/11/12 07:49:55;;;;;;;30.80;17.17;;;7.10;99.90;;;;;;4718999;29;20379;-84
2023/11/12 08:10:37;;;;;;;24.03;15.43;;;6.90;99.90;;;;;;4885355;28;20301;-85
2023/11/12 08:35:32;;;;;;;23.57;14.77;;;6.70;99.90;;;;;;4849024;28;20622;-83
2023/11/12 09:01:16;;;;;;;24.30;14.47;;;6.20;99.90;;;;;;4848955;28;20411;-85
2023/11/12 09:31:54;;;;;;;27.23;16.80;;;6.40;99.90;;;;;;4739252;29;20212;-85
2023/11/12 09:57:08;;;;;;;28.73;17.57;;;6.70;99.90;;;;;;4643944;30;20228;-87
2023/11/12 10:17:27;;;;;;;29.53;18.37;;;6.70;99.90;;;;;;4744755;29;20568;-85
2023/11/12 10:47:26;;;;;;;27.27;18.13;;;5.80;99.90;;;;;;4802384;29;20213;-84
2023/11/12 11:13:10;;;;;;;42.57;24.33;;;6.10;99.90;;;;;;4852095;29;20801;-85
2023/11/12 11:38:42;;;;;;;42.57;24.77;;;6.30;99.90;;;;;;4844764;28;20212;-84
2023/11/12 12:09:14;;;;;;;46.00;28.80;;;6.90;99.90;;;;;;4799385;28;20212;-83
2023/11/12 12:13:33;;;;;;;51.80;28.90;;;6.90;99.90;;;;;;4771086;29;20259;-82
2023/11/12 12:34:19;;;;;;;55.83;32.63;;;7.00;99.90;;;;;;4720124;29;20264;-85
2023/11/12 12:59:55;;;;;;;44.67;28.50;;;7.90;99.90;;;;;;4745225;29;20315;-84
2023/11/12 13:24:33;;;;;;;31.97;22.40;;;8.10;99.90;;;;;;4704942;29;21152;-88
2023/11/12 13:45:09;;;;;;;30.37;21.50;;;7.80;99.90;;;;;;4711936;29;20529;-85
2023/11/12 14:05:52;;;;;;;29.50;20.10;;;7.50;99.90;;;;;;4620243;30;20396;-83
2023/11/12 14:10:14;;;;;;;30.27;19.60;;;7.40;99.90;;;;;;4581628;30;20471;-83
2023/11/12 14:31:00;;;;;;;29.10;21.00;;;6.90;99.90;;;;;;4715316;29;20264;-84
2023/11/12 14:51:10;;;;;;;27.53;19.90;;;6.80;99.90;;;;;;4850654;28;20531;-82
2023/11/12 15:27:00;;;;;;;24.57;16.40;;;6.50;99.90;;;;;;4908253;28;20305;-84
2023/11/12 15:31:19;;;;;;;25.17;17.47;;;6.50;99.90;;;;;;4832845;28;20594;-88
2023/11/12 15:51:36;;;;;;;28.80;18.70;;;6.10;99.90;;;;;;4799549;29;21219;-85
2023/11/12 16:22:02;;;;;;;39.13;20.87;;;6.00;99.90;;;;;;4743194;29;20670;-85
2023/11/12 16:42:19;;;;;;;32.13;20.80;;;6.70;99.90;;;;;;4701596;29;20580;-88
2023/11/12 17:03:06;;;;;;;28.80;18.60;;;7.10;99.90;;;;;;4848641;28;20197;-85
2023/11/12 17:28:32;;;;;;;26.47;17.27;;;6.70;99.90;;;;;;4841033;29;20244;-84
2023/11/12 17:48:47;;;;;;;26.73;17.83;;;6.80;99.90;;;;;;4881250;28;20354;-84
2023/11/12 18:19:12;;;;;;;29.10;19.20;;;6.80;99.90;;;;;;4877562;28;20205;-86
2023/11/12 18:44:41;;;;;;;30.77;20.47;;;6.80;99.90;;;;;;4841415;29;20244;-84
2023/11/12 19:15:07;;;;;;;29.40;19.10;;;6.90;99.90;;;;;;4890365;28;20197;-86
2023/11/12 19:40:16;;;;;;;29.70;19.63;;;7.00;99.90;;;;;;4759984;29;20224;-86
2023/11/12 20:55:53;;;;;;;30.67;21.50;;;6.70;99.90;;;;;;4703649;29;20715;-84
2023/11/12 21:21:56;;;;;;;30.37;20.27;;;6.80;99.90;;;;;;4730735;29;20212;-87
2023/11/12 22:12:00;;;;;;;28.37;18.97;;;6.70;99.90;;;;;;4572685;30;20520;-85
2023/11/12 22:32:41;;;;;;;27.33;18.30;;;6.60;99.90;;;;;;4691132;29;20224;-86
2023/11/12 22:58:05;;;;;;;26.20;18.17;;;6.50;99.90;;;;;;4688586;29;20292;-84
2023/11/12 23:28:42;;;;;;;27.37;18.07;;;6.10;99.90;;;;;;4719668;29;20262;-85
2023/11/12 23:53:56;;;;;;;26.37;17.43;;;6.30;99.90;;;;;;4675718;29;20283;-85
